createdAt,value
2022-08-17T00:04:24.042Z,67502.31
2022-08-17T00:09:28.199Z,67509.47
2022-08-17T00:14:32.154Z,67512.59
2022-08-17T00:19:37.416Z,67472.16
2022-08-17T00:24:41.087Z,67403.88
2022-08-17T00:29:45.580Z,67325.03
2022-08-17T00:34:50.859Z,67303.91
2022-08-17T00:39:54.811Z,67326.72
2022-08-17T00:44:58.925Z,67401.78
2022-08-17T00:50:05.357Z,67435.25
2022-08-17T00:55:10.412Z,67457.44
2022-08-17T01:00:21.441Z,67438.50
2022-08-17T01:05:30.907Z,67438.00
2022-08-17T01:10:58.797Z,67469.91
2022-08-17T01:16:13.052Z,67449.78
2022-08-17T01:21:23.815Z,67496.34
2022-08-17T01:26:30.967Z,67422.88
2022-08-17T01:31:38.786Z,67415.31
2022-08-17T01:36:46.015Z,67366.03
2022-08-17T01:41:55.966Z,67440.78
2022-08-17T01:46:59.915Z,67425.03
2022-08-17T01:52:08.739Z,67398.53
2022-08-17T01:57:14.226Z,67424.44
2022-08-17T02:02:30.406Z,67403.88
2022-08-17T02:07:58.642Z,67436.41
2022-08-17T02:13:02.478Z,67426.56
2022-08-17T02:18:07.472Z,67396.31
2022-08-17T02:23:14.957Z,67371.03
2022-08-17T02:28:21.062Z,67368.25
2022-08-17T02:33:25.240Z,67358.47
2022-08-17T02:38:47.862Z,67399.06
2022-08-17T02:43:54.262Z,67387.66
2022-08-17T02:48:58.103Z,67379.56
2022-08-17T02:54:40.445Z,67390.91
2022-08-17T02:59:26.778Z,67214.31
2022-08-17T03:04:30.987Z,67229.88
2022-08-17T03:09:38.780Z,67306.66
2022-08-17T03:14:44.949Z,67348.88
2022-08-17T03:19:48.649Z,67316.94
2022-08-17T03:24:52.769Z,67285.59
2022-08-17T03:29:58.602Z,67292.66
2022-08-17T03:35:02.355Z,67332.56
2022-08-17T03:40:08.807Z,67350.44
2022-08-17T03:45:16.883Z,67386.09
2022-08-17T03:50:38.419Z,67404.34
2022-08-17T03:55:59.395Z,67416.41
2022-08-17T04:01:04.888Z,67454.78
2022-08-17T04:06:09.091Z,67308.81
2022-08-17T04:11:12.802Z,67237.47
2022-08-17T04:16:17.774Z,67245.63
2022-08-17T04:21:22.267Z,67282.81
2022-08-17T04:26:54.082Z,67360.16
2022-08-17T04:31:50.941Z,67456.88
2022-08-17T04:36:54.525Z,67505.03
2022-08-17T04:42:17.297Z,67498.59
2022-08-17T04:47:22.510Z,67542.94
2022-08-17T04:52:32.218Z,67401.25
2022-08-17T04:57:47.264Z,67362.81
2022-08-17T05:02:53.324Z,67344.38
2022-08-17T05:08:00.081Z,67346.59
2022-08-17T05:13:05.705Z,67371.03
2022-08-17T05:18:10.953Z,67360.63
2022-08-17T05:23:17.103Z,67389.81
2022-08-17T05:28:24.232Z,67442.47
2022-08-17T05:33:35.470Z,67584.59
2022-08-17T05:38:39.865Z,67621.97
2022-08-17T05:43:43.863Z,67624.25
2022-08-17T05:48:51.107Z,67577.63
2022-08-17T05:54:01.839Z,67515.78
2022-08-17T05:59:12.461Z,67460.25
2022-08-17T06:04:27.951Z,67461.34
2022-08-17T06:09:37.084Z,67539.13
2022-08-17T06:14:58.924Z,67534.38
2022-08-17T06:20:09.215Z,67529.47
2022-08-17T06:25:16.801Z,67599.19
2022-08-17T06:30:24.800Z,67528.34
2022-08-17T06:35:35.696Z,67586.25
2022-08-17T06:40:55.375Z,67601.41
2022-08-17T06:46:04.636Z,67539.13
2022-08-17T06:51:20.054Z,67519.69
2022-08-17T06:56:54.800Z,67541.88
2022-08-17T07:01:56.630Z,67514.75
2022-08-17T07:07:25.171Z,67527.75
2022-08-17T07:12:38.453Z,67610.66
2022-08-17T07:17:47.209Z,67662.16
2022-08-17T07:23:00.680Z,67658.91
2022-08-17T07:28:07.821Z,67692.94
2022-08-17T07:33:13.685Z,67690.75
2022-08-17T07:38:24.731Z,67745.47
2022-08-17T07:43:33.048Z,67856.59
2022-08-17T07:48:39.830Z,67914.59
2022-08-17T07:53:45.407Z,67905.47
2022-08-17T07:58:49.229Z,67749.31
2022-08-17T08:03:52.945Z,67799.69
2022-08-17T08:09:00.600Z,67941.75
2022-08-17T08:14:29.565Z,68050.25
2022-08-17T08:19:35.506Z,67979.19
2022-08-17T08:24:58.349Z,68068.09
2022-08-17T08:30:07.776Z,68019.88
2022-08-17T08:35:18.507Z,68074.75
2022-08-17T08:40:36.352Z,67989.53
2022-08-17T08:45:48.567Z,67872.88
2022-08-17T08:51:01.161Z,67924.91
2022-08-17T08:56:11.100Z,67981.84
2022-08-17T09:01:22.080Z,67915.78
2022-08-17T09:06:39.798Z,67997.63
2022-08-17T09:12:01.423Z,68096.47
2022-08-17T09:17:14.228Z,68114.84
2022-08-17T09:22:34.937Z,68226.78
2022-08-17T09:27:51.809Z,67968.94
2022-08-17T09:32:59.973Z,67993.28
2022-08-17T09:38:18.298Z,67902.13
2022-08-17T09:43:31.759Z,68144.25
2022-08-17T09:48:40.632Z,68163.16
2022-08-17T09:53:44.949Z,67982.97
2022-08-17T09:59:09.683Z,67855.53
2022-08-17T10:04:30.680Z,67684.91
2022-08-17T10:09:49.783Z,67553.78
2022-08-17T10:15:14.704Z,67672.41
2022-08-17T10:20:25.838Z,67864.75
2022-08-17T10:25:55.122Z,67962.31
2022-08-17T10:36:43.253Z,68024.16
2022-08-17T10:41:53.090Z,68082.84
2022-08-17T10:47:09.008Z,68166.94
2022-08-17T10:52:46.002Z,68123.53
2022-08-17T10:57:51.388Z,68219.19
2022-08-17T11:02:57.984Z,68255.03
2022-08-17T11:08:21.225Z,68342.56
2022-08-17T11:13:35.536Z,68381.66
2022-08-17T11:19:09.964Z,68402.31
2022-08-17T11:24:23.216Z,68350.66
2022-08-17T11:29:32.474Z,68263.72
2022-08-17T11:34:44.669Z,68227.34
2022-08-17T11:40:24.553Z,68274.03
2022-08-17T11:45:46.550Z,68311.03
2022-08-17T11:51:17.342Z,68468.66
2022-08-17T11:56:34.182Z,68376.84
2022-08-17T12:01:58.486Z,68433.28
2022-08-17T12:07:11.516Z,68444.78
2022-08-17T12:12:19.228Z,68669.56
2022-08-17T12:17:40.658Z,68549.78
2022-08-17T12:22:56.623Z,68259.88
2022-08-17T12:28:06.540Z,68170.81
2022-08-17T12:33:25.708Z,68263.22
2022-08-17T12:38:36.261Z,68504.16
2022-08-17T12:43:39.992Z,68629.84
2022-08-17T12:48:59.157Z,68845.06
2022-08-17T12:59:12.140Z,68727.31
2022-08-17T13:04:17.539Z,68829.25
2022-08-17T13:09:35.664Z,68645.03
2022-08-17T13:14:47.781Z,68408.94
2022-08-17T13:19:52.303Z,68534.56
2022-08-17T13:24:58.520Z,68669.59
2022-08-17T13:30:08.442Z,68661.44
2022-08-17T13:35:39.266Z,68936.66
2022-08-17T13:40:49.171Z,68783.41
2022-08-17T13:45:54.531Z,68799.25
2022-08-17T13:51:15.136Z,68828.69
2022-08-17T13:56:44.764Z,68725.66
2022-08-17T14:01:53.857Z,68706.59
2022-08-17T14:07:29.823Z,68880.50
2022-08-17T14:12:35.689Z,68852.66
2022-08-17T14:17:40.861Z,68836.91
2022-08-17T14:22:49.601Z,68431.75
2022-08-17T14:27:58.321Z,68756.25
2022-08-17T14:33:09.583Z,68778.00
2022-08-17T14:38:15.168Z,68433.94
2022-08-17T14:43:20.559Z,68463.25
2022-08-17T14:48:38.357Z,68559.06
2022-08-17T14:53:43.162Z,68494.81
2022-08-17T14:58:54.525Z,68497.06
2022-08-17T15:04:01.088Z,68543.28
2022-08-17T15:09:04.939Z,68413.75
2022-08-17T15:14:08.794Z,68471.44
2022-08-17T15:19:14.502Z,68635.78
2022-08-17T15:24:18.426Z,68520.91
2022-08-17T15:29:22.698Z,68574.81
2022-08-17T15:34:27.966Z,68584.63
2022-08-17T15:39:31.699Z,68508.94
2022-08-17T15:44:40.694Z,68601.03
2022-08-17T15:49:46.823Z,68611.84
2022-08-17T15:54:51.969Z,68400.69
2022-08-17T15:59:58.659Z,68428.44
2022-08-17T16:05:06.025Z,68354.47
2022-08-17T16:10:18.697Z,68329.38
2022-08-17T16:15:22.994Z,68375.72
2022-08-17T16:20:30.669Z,68470.84
2022-08-17T16:25:52.675Z,68234.34
2022-08-17T16:30:58.600Z,68081.13
2022-08-17T16:36:03.728Z,68016.56
2022-08-17T16:41:08.230Z,68029.66
2022-08-17T16:46:11.891Z,67991.63
2022-08-17T16:51:17.022Z,67995.94
2022-08-17T16:56:20.917Z,68017.66
2022-08-17T17:01:26.530Z,68023.53
2022-08-17T17:06:39.257Z,67978.00
2022-08-17T17:11:45.910Z,67959.00
2022-08-17T17:16:57.820Z,67930.28
2022-08-17T17:22:09.856Z,67879.31
2022-08-17T17:27:23.147Z,67854.91
2022-08-17T17:32:32.260Z,67860.34
2022-08-17T17:37:39.730Z,67853.84
2022-08-17T17:42:45.521Z,67853.41
2022-08-17T17:47:50.685Z,67871.22
2022-08-17T17:53:03.159Z,67912.47
2022-08-17T17:58:39.229Z,67897.63
2022-08-17T18:04:33.220Z,67899.94
2022-08-17T18:10:29.628Z,67918.88
2022-08-17T18:16:09.198Z,67912.91
2022-08-17T18:21:51.548Z,67853.28
2022-08-17T18:27:44.349Z,67822.91
2022-08-17T18:33:36.220Z,67846.16
2022-08-17T18:39:26.287Z,67837.59
2022-08-17T18:45:07.154Z,67808.88
2022-08-17T18:50:53.403Z,67811.56
2022-08-17T18:56:37.193Z,67790.94
2022-08-17T19:02:45.168Z,67837.00
2022-08-17T19:08:38.212Z,67794.22
2022-08-17T19:14:20.161Z,67813.63
2022-08-17T19:20:06.319Z,67817.41
2022-08-17T19:25:46.179Z,67764.97
2022-08-17T19:31:28.298Z,67776.78
2022-08-17T19:36:54.396Z,67716.75
2022-08-17T19:42:03.195Z,67763.34
2022-08-17T19:47:30.743Z,67762.78
2022-08-17T19:52:53.758Z,67764.50
2022-08-17T19:58:06.076Z,67771.50
2022-08-17T20:03:16.794Z,67768.69
2022-08-17T20:08:28.944Z,67746.56
2022-08-17T20:13:36.639Z,67754.56
2022-08-17T20:18:50.751Z,67739.50
2022-08-17T20:24:05.545Z,67741.69
2022-08-17T20:29:40.118Z,67715.66
2022-08-17T20:34:48.862Z,67701.66
2022-08-17T20:40:26.372Z,67697.78
2022-08-17T20:45:57.861Z,67510.97
2022-08-17T20:51:16.438Z,67471.53
2022-08-17T20:56:49.310Z,67373.63
2022-08-17T21:02:18.542Z,67314.75
2022-08-17T21:07:30.148Z,67316.78
2022-08-17T21:12:44.319Z,67327.22
2022-08-17T21:17:56.390Z,67316.31
2022-08-17T21:23:19.042Z,67362.81
2022-08-17T21:28:34.376Z,67301.19
2022-08-17T21:33:39.687Z,67274.25
2022-08-17T21:38:57.578Z,67281.16
2022-08-17T21:44:14.114Z,67311.47
2022-08-17T21:49:21.521Z,67306.53
2022-08-17T21:54:31.987Z,67271.56
2022-08-17T21:59:40.069Z,67290.44
2022-08-17T22:04:44.836Z,67269.25
2022-08-17T22:09:50.408Z,67319.09
2022-08-17T22:15:00.459Z,67277.97
2022-08-17T22:20:09.239Z,67337.41
2022-08-17T22:25:22.408Z,67342.28
2022-08-17T22:30:34.686Z,67393.66
2022-08-17T22:35:41.445Z,67410.91
2022-08-17T22:40:49.832Z,67408.09
2022-08-17T22:46:00.473Z,67442.88
2022-08-17T22:51:13.366Z,67474.66
2022-08-17T22:56:37.874Z,67468.84
2022-08-17T23:01:45.448Z,67481.34
2022-08-17T23:06:49.095Z,67469.38
2022-08-17T23:11:58.997Z,67492.56
2022-08-17T23:17:04.469Z,67508.28
2022-08-17T23:22:11.432Z,67467.16
2022-08-17T23:27:15.202Z,67463.91
2022-08-17T23:32:22.291Z,67439.09
2022-08-17T23:37:27.689Z,67289.78
2022-08-17T23:42:31.129Z,67179.22
2022-08-17T23:47:36.196Z,67192.22
2022-08-17T23:52:41.442Z,67310.84
2022-08-17T23:57:45.054Z,67338.56
